sensor_id;sensor_type;location;lat;lon;timestamp;P1;durP1;ratioP1;P2;durP2;ratioP2
49221;SDS011;35047;37.588;-122.048;2022-11-20T00:01:28;0.45;;;0.45;;
49221;SDS011;35047;37.588;-122.048;2022-11-20T00:03:56;1.10;;;0.52;;
49221;SDS011;35047;37.588;-122.048;2022-11-20T00:06:23;0.63;;;0.63;;
49221;SDS011;35047;37.588;-122.048;2022-11-20T00:08:52;1.02;;;0.52;;
49221;SDS011;35047;37.588;-122.048;2022-11-20T00:11:22;0.70;;;0.40;;
49221;SDS011;35047;37.588;-122.048;2022-11-20T00:13:51;0.22;;;0.22;;
49221;SDS011;35047;37.588;-122.048;2022-11-20T00:16:22;3.13;;;0.60;;
49221;SDS011;35047;37.588;-122.048;2022-11-20T00:18:50;1.90;;;0.68;;
49221;SDS011;35047;37.588;-122.048;2022-11-20T00:21:24;5.53;;;0.68;;
49221;SDS011;35047;37.588;-122.048;2022-11-20T00:23:53;1.13;;;0.60;;
49221;SDS011;35047;37.588;-122.048;2022-11-20T00:26:21;1.73;;;0.77;;
49221;SDS011;35047;37.588;-122.048;2022-11-20T00:28:50;2.58;;;0.75;;
49221;SDS011;35047;37.588;-122.048;2022-11-20T00:31:27;2.67;;;1.00;;
49221;SDS011;35047;37.588;-122.048;2022-11-20T00:33:55;0.98;;;0.50;;
49221;SDS011;35047;37.588;-122.048;2022-11-20T00:36:23;0.95;;;0.57;;
49221;SDS011;35047;37.588;-122.048;2022-11-20T00:38:52;1.38;;;0.77;;
49221;SDS011;35047;37.588;-122.048;2022-11-20T00:41:20;1.10;;;0.80;;
49221;SDS011;35047;37.588;-122.048;2022-11-20T00:43:47;1.55;;;0.55;;
49221;SDS011;35047;37.588;-122.048;2022-11-20T00:46:14;0.77;;;0.43;;
49221;SDS011;35047;37.588;-122.048;2022-11-20T00:48:43;3.03;;;0.75;;
49221;SDS011;35047;37.588;-122.048;2022-11-20T00:51:11;1.30;;;0.60;;
49221;SDS011;35047;37.588;-122.048;2022-11-20T00:53:42;0.60;;;0.40;;
49221;SDS011;35047;37.588;-122.048;2022-11-20T00:56:11;0.60;;;0.30;;
49221;SDS011;35047;37.588;-122.048;2022-11-20T00:58:40;2.55;;;0.70;;
49221;SDS011;35047;37.588;-122.048;2022-11-20T01:01:15;0.75;;;0.32;;
49221;SDS011;35047;37.588;-122.048;2022-11-20T01:03:45;0.90;;;0.70;;
49221;SDS011;35047;37.588;-122.048;2022-11-20T01:06:17;1.00;;;0.40;;
49221;SDS011;35047;37.588;-122.048;2022-11-20T01:08:45;2.63;;;0.60;;
49221;SDS011;35047;37.588;-122.048;2022-11-20T01:11:22;1.35;;;1.00;;
49221;SDS011;35047;37.588;-122.048;2022-11-20T01:13:50;4.18;;;1.13;;
49221;SDS011;35047;37.588;-122.048;2022-11-20T01:16:22;1.30;;;0.68;;
49221;SDS011;35047;37.588;-122.048;2022-11-20T01:18:54;0.77;;;0.50;;
49221;SDS011;35047;37.588;-122.048;2022-11-20T01:21:25;0.98;;;0.75;;
49221;SDS011;35047;37.588;-122.048;2022-11-20T01:23:56;3.85;;;0.85;;
49221;SDS011;35047;37.588;-122.048;2022-11-20T01:26:25;1.05;;;0.88;;
49221;SDS011;35047;37.588;-122.048;2022-11-20T01:28:53;2.38;;;0.52;;
49221;SDS011;35047;37.588;-122.048;2022-11-20T01:31:22;0.80;;;0.70;;
49221;SDS011;35047;37.588;-122.048;2022-11-20T01:33:55;2.00;;;0.75;;
49221;SDS011;35047;37.588;-122.048;2022-11-20T01:36:24;0.70;;;0.60;;
49221;SDS011;35047;37.588;-122.048;2022-11-20T01:38:53;0.52;;;0.52;;
49221;SDS011;35047;37.588;-122.048;2022-11-20T01:41:20;2.33;;;0.90;;
49221;SDS011;35047;37.588;-122.048;2022-11-20T01:44:08;1.33;;;0.93;;
49221;SDS011;35047;37.588;-122.048;2022-11-20T01:46:38;1.23;;;0.82;;
49221;SDS011;35047;37.588;-122.048;2022-11-20T01:49:15;4.30;;;0.90;;
49221;SDS011;35047;37.588;-122.048;2022-11-20T01:51:56;6.63;;;0.85;;
49221;SDS011;35047;37.588;-122.048;2022-11-20T01:54:31;1.88;;;0.80;;
49221;SDS011;35047;37.588;-122.048;2022-11-20T01:57:06;1.83;;;0.70;;
49221;SDS011;35047;37.588;-122.048;2022-11-20T01:59:37;2.65;;;0.90;;
49221;SDS011;35047;37.588;-122.048;2022-11-20T02:02:10;0.55;;;0.45;;
49221;SDS011;35047;37.588;-122.048;2022-11-20T02:04:38;1.40;;;0.52;;
49221;SDS011;35047;37.588;-122.048;2022-11-20T02:07:05;0.50;;;0.40;;
49221;SDS011;35047;37.588;-122.048;2022-11-20T02:09:32;0.63;;;0.40;;
49221;SDS011;35047;37.588;-122.048;2022-11-20T02:12:00;1.60;;;0.70;;
49221;SDS011;35047;37.588;-122.048;2022-11-20T02:14:27;2.03;;;1.00;;
49221;SDS011;35047;37.588;-122.048;2022-11-20T02:16:54;1.42;;;0.77;;
49221;SDS011;35047;37.588;-122.048;2022-11-20T02:19:26;1.33;;;1.00;;
49221;SDS011;35047;37.588;-122.048;2022-11-20T02:22:19;0.88;;;0.68;;
49221;SDS011;35047;37.588;-122.048;2022-11-20T02:25:00;1.02;;;0.70;;
49221;SDS011;35047;37.588;-122.048;2022-11-20T02:27:29;2.35;;;1.17;;
49221;SDS011;35047;37.588;-122.048;2022-11-20T02:29:57;1.08;;;0.70;;
49221;SDS011;35047;37.588;-122.048;2022-11-20T02:32:28;1.92;;;1.10;;
49221;SDS011;35047;37.588;-122.048;2022-11-20T02:35:35;0.95;;;0.55;;
49221;SDS011;35047;37.588;-122.048;2022-11-20T02:37:58;1.45;;;1.27;;
49221;SDS011;35047;37.588;-122.048;2022-11-20T02:40:27;1.70;;;0.85;;
49221;SDS011;35047;37.588;-122.048;2022-11-20T02:42:54;0.85;;;0.60;;
49221;SDS011;35047;37.588;-122.048;2022-11-20T02:45:22;6.72;;;1.00;;
49221;SDS011;35047;37.588;-122.048;2022-11-20T02:47:50;5.50;;;1.05;;
49221;SDS011;35047;37.588;-122.048;2022-11-20T02:50:18;3.15;;;1.17;;
49221;SDS011;35047;37.588;-122.048;2022-11-20T02:52:45;2.38;;;0.88;;
49221;SDS011;35047;37.588;-122.048;2022-11-20T02:57:40;1.90;;;1.23;;
49221;SDS011;35047;37.588;-122.048;2022-11-20T03:00:06;7.45;;;1.38;;
49221;SDS011;35047;37.588;-122.048;2022-11-20T03:05:00;2.78;;;0.80;;
49221;SDS011;35047;37.588;-122.048;2022-11-20T03:07:28;2.67;;;1.02;;
49221;SDS011;35047;37.588;-122.048;2022-11-20T03:09:55;1.48;;;0.80;;
49221;SDS011;35047;37.588;-122.048;2022-11-20T03:12:22;1.50;;;0.90;;
49221;SDS011;35047;37.588;-122.048;2022-11-20T03:14:48;1.17;;;0.82;;
49221;SDS011;35047;37.588;-122.048;2022-11-20T03:17:15;3.30;;;0.80;;
49221;SDS011;35047;37.588;-122.048;2022-11-20T03:19:42;3.22;;;0.98;;
49221;SDS011;35047;37.588;-122.048;2022-11-20T03:22:08;4.05;;;1.13;;
49221;SDS011;35047;37.588;-122.048;2022-11-20T03:24:35;2.58;;;0.93;;
49221;SDS011;35047;37.588;-122.048;2022-11-20T03:27:01;2.72;;;0.82;;
49221;SDS011;35047;37.588;-122.048;2022-11-20T03:29:28;1.45;;;0.77;;
49221;SDS011;35047;37.588;-122.048;2022-11-20T03:31:56;1.85;;;1.00;;
49221;SDS011;35047;37.588;-122.048;2022-11-20T03:34:23;1.80;;;0.98;;
49221;SDS011;35047;37.588;-122.048;2022-11-20T03:36:50;2.93;;;1.07;;
49221;SDS011;35047;37.588;-122.048;2022-11-20T03:39:16;5.90;;;0.88;;
49221;SDS011;35047;37.588;-122.048;2022-11-20T03:44:10;1.48;;;1.15;;
49221;SDS011;35047;37.588;-122.048;2022-11-20T03:46:39;2.38;;;1.33;;
49221;SDS011;35047;37.588;-122.048;2022-11-20T03:49:05;1.05;;;0.95;;
49221;SDS011;35047;37.588;-122.048;2022-11-20T03:51:34;3.25;;;1.02;;
49221;SDS011;35047;37.588;-122.048;2022-11-20T03:54:03;2.47;;;1.20;;
49221;SDS011;35047;37.588;-122.048;2022-11-20T03:56:33;1.48;;;0.95;;
49221;SDS011;35047;37.588;-122.048;2022-11-20T03:59:02;6.50;;;1.10;;
49221;SDS011;35047;37.588;-122.048;2022-11-20T04:01:31;3.13;;;1.02;;
49221;SDS011;35047;37.588;-122.048;2022-11-20T04:04:04;2.65;;;1.70;;
49221;SDS011;35047;37.588;-122.048;2022-11-20T04:06:36;6.57;;;1.30;;
49221;SDS011;35047;37.588;-122.048;2022-11-20T04:09:03;4.72;;;1.58;;
49221;SDS011;35047;37.588;-122.048;2022-11-20T04:11:32;2.63;;;1.20;;
49221;SDS011;35047;37.588;-122.048;2022-11-20T04:14:01;2.92;;;1.38;;
49221;SDS011;35047;37.588;-122.048;2022-11-20T04:16:31;2.33;;;1.13;;
49221;SDS011;35047;37.588;-122.048;2022-11-20T04:19:00;1.95;;;1.10;;
49221;SDS011;35047;37.588;-122.048;2022-11-20T04:21:28;10.18;;;1.45;;
49221;SDS011;35047;37.588;-122.048;2022-11-20T04:26:24;4.80;;;1.00;;
49221;SDS011;35047;37.588;-122.048;2022-11-20T04:28:52;5.65;;;1.40;;
49221;SDS011;35047;37.588;-122.048;2022-11-20T04:31:20;5.00;;;1.90;;
49221;SDS011;35047;37.588;-122.048;2022-11-20T04:33:53;3.60;;;1.15;;
49221;SDS011;35047;37.588;-122.048;2022-11-20T04:36:22;3.95;;;1.42;;
49221;SDS011;35047;37.588;-122.048;2022-11-20T04:38:53;2.63;;;1.27;;
49221;SDS011;35047;37.588;-122.048;2022-11-20T04:41:25;5.72;;;1.77;;
49221;SDS011;35047;37.588;-122.048;2022-11-20T04:43:58;1.77;;;1.20;;
49221;SDS011;35047;37.588;-122.048;2022-11-20T04:46:29;1.77;;;1.05;;
49221;SDS011;35047;37.588;-122.048;2022-11-20T04:48:57;4.40;;;1.30;;
49221;SDS011;35047;37.588;-122.048;2022-11-20T04:51:25;2.53;;;1.05;;
49221;SDS011;35047;37.588;-122.048;2022-11-20T04:53:55;4.03;;;1.48;;
49221;SDS011;35047;37.588;-122.048;2022-11-20T04:56:23;3.28;;;1.67;;
49221;SDS011;35047;37.588;-122.048;2022-11-20T04:58:50;3.50;;;1.70;;
49221;SDS011;35047;37.588;-122.048;2022-11-20T05:01:21;4.93;;;1.48;;
49221;SDS011;35047;37.588;-122.048;2022-11-20T05:03:48;2.75;;;1.30;;
49221;SDS011;35047;37.588;-122.048;2022-11-20T05:06:18;3.17;;;1.80;;
49221;SDS011;35047;37.588;-122.048;2022-11-20T05:08:45;2.50;;;1.40;;
49221;SDS011;35047;37.588;-122.048;2022-11-20T05:11:13;7.07;;;1.88;;
49221;SDS011;35047;37.588;-122.048;2022-11-20T05:13:42;2.80;;;1.40;;
49221;SDS011;35047;37.588;-122.048;2022-11-20T05:16:10;2.63;;;1.73;;
49221;SDS011;35047;37.588;-122.048;2022-11-20T05:18:42;1.90;;;1.48;;
49221;SDS011;35047;37.588;-122.048;2022-11-20T05:21:09;2.95;;;1.20;;
49221;SDS011;35047;37.588;-122.048;2022-11-20T05:23:37;3.15;;;2.15;;
49221;SDS011;35047;37.588;-122.048;2022-11-20T05:26:04;4.13;;;2.00;;
49221;SDS011;35047;37.588;-122.048;2022-11-20T05:28:33;6.57;;;2.08;;
49221;SDS011;35047;37.588;-122.048;2022-11-20T05:31:08;2.17;;;1.50;;
49221;SDS011;35047;37.588;-122.048;2022-11-20T05:33:39;5.88;;;1.90;;
49221;SDS011;35047;37.588;-122.048;2022-11-20T05:36:08;3.95;;;2.13;;
49221;SDS011;35047;37.588;-122.048;2022-11-20T05:38:36;4.80;;;2.40;;
49221;SDS011;35047;37.588;-122.048;2022-11-20T05:41:04;7.40;;;2.38;;
49221;SDS011;35047;37.588;-122.048;2022-11-20T05:43:35;8.20;;;2.17;;
49221;SDS011;35047;37.588;-122.048;2022-11-20T05:46:03;3.58;;;2.47;;
49221;SDS011;35047;37.588;-122.048;2022-11-20T05:48:32;4.82;;;2.13;;
49221;SDS011;35047;37.588;-122.048;2022-11-20T05:51:00;5.32;;;2.40;;
49221;SDS011;35047;37.588;-122.048;2022-11-20T05:53:29;4.88;;;2.22;;
49221;SDS011;35047;37.588;-122.048;2022-11-20T05:55:58;2.72;;;1.75;;
49221;SDS011;35047;37.588;-122.048;2022-11-20T05:58:26;4.18;;;2.20;;
49221;SDS011;35047;37.588;-122.048;2022-11-20T06:03:20;2.97;;;1.40;;
49221;SDS011;35047;37.588;-122.048;2022-11-20T06:05:46;2.75;;;1.88;;
49221;SDS011;35047;37.588;-122.048;2022-11-20T06:08:13;4.47;;;2.25;;
49221;SDS011;35047;37.588;-122.048;2022-11-20T06:10:40;3.38;;;2.13;;
49221;SDS011;35047;37.588;-122.048;2022-11-20T06:13:06;3.77;;;1.57;;
49221;SDS011;35047;37.588;-122.048;2022-11-20T06:15:33;3.13;;;1.80;;
49221;SDS011;35047;37.588;-122.048;2022-11-20T06:17:59;7.05;;;2.58;;
49221;SDS011;35047;37.588;-122.048;2022-11-20T06:20:28;9.48;;;2.15;;
49221;SDS011;35047;37.588;-122.048;2022-11-20T06:22:55;5.43;;;2.50;;
49221;SDS011;35047;37.588;-122.048;2022-11-20T06:25:22;10.85;;;2.85;;
49221;SDS011;35047;37.588;-122.048;2022-11-20T06:27:49;3.78;;;2.30;;
49221;SDS011;35047;37.588;-122.048;2022-11-20T06:30:16;4.13;;;1.95;;
49221;SDS011;35047;37.588;-122.048;2022-11-20T06:35:09;2.58;;;1.95;;
49221;SDS011;35047;37.588;-122.048;2022-11-20T06:37:37;7.28;;;2.78;;
49221;SDS011;35047;37.588;-122.048;2022-11-20T06:40:03;7.05;;;2.33;;
49221;SDS011;35047;37.588;-122.048;2022-11-20T06:42:32;5.60;;;2.00;;
49221;SDS011;35047;37.588;-122.048;2022-11-20T06:44:58;4.97;;;1.95;;
49221;SDS011;35047;37.588;-122.048;2022-11-20T06:49:52;6.95;;;2.40;;
49221;SDS011;35047;37.588;-122.048;2022-11-20T06:52:20;7.05;;;2.67;;
49221;SDS011;35047;37.588;-122.048;2022-11-20T06:54:46;5.35;;;2.53;;
49221;SDS011;35047;37.588;-122.048;2022-11-20T06:57:13;6.60;;;2.42;;
49221;SDS011;35047;37.588;-122.048;2022-11-20T06:59:40;8.77;;;1.90;;
49221;SDS011;35047;37.588;-122.048;2022-11-20T07:02:11;6.50;;;2.33;;
49221;SDS011;35047;37.588;-122.048;2022-11-20T07:04:38;6.30;;;2.25;;
49221;SDS011;35047;37.588;-122.048;2022-11-20T07:07:05;5.78;;;2.72;;
49221;SDS011;35047;37.588;-122.048;2022-11-20T07:09:32;4.53;;;1.70;;
49221;SDS011;35047;37.588;-122.048;2022-11-20T07:11:59;4.43;;;1.92;;
49221;SDS011;35047;37.588;-122.048;2022-11-20T07:14:25;7.20;;;2.72;;
49221;SDS011;35047;37.588;-122.048;2022-11-20T07:19:19;8.18;;;1.73;;
49221;SDS011;35047;37.588;-122.048;2022-11-20T07:24:13;5.25;;;1.67;;
49221;SDS011;35047;37.588;-122.048;2022-11-20T07:29:06;6.00;;;2.15;;
49221;SDS011;35047;37.588;-122.048;2022-11-20T07:31:33;4.72;;;1.83;;
49221;SDS011;35047;37.588;-122.048;2022-11-20T07:33:59;5.03;;;1.55;;
49221;SDS011;35047;37.588;-122.048;2022-11-20T07:36:27;4.30;;;1.45;;
49221;SDS011;35047;37.588;-122.048;2022-11-20T07:38:53;7.22;;;2.33;;
49221;SDS011;35047;37.588;-122.048;2022-11-20T07:41:20;8.30;;;1.48;;
49221;SDS011;35047;37.588;-122.048;2022-11-20T07:43:48;5.90;;;2.00;;
49221;SDS011;35047;37.588;-122.048;2022-11-20T07:46:14;6.20;;;2.10;;
49221;SDS011;35047;37.588;-122.048;2022-11-20T07:48:41;3.03;;;1.42;;
49221;SDS011;35047;37.588;-122.048;2022-11-20T07:51:08;4.00;;;1.63;;
49221;SDS011;35047;37.588;-122.048;2022-11-20T07:53:36;3.08;;;1.63;;
49221;SDS011;35047;37.588;-122.048;2022-11-20T07:56:03;5.88;;;2.67;;
49221;SDS011;35047;37.588;-122.048;2022-11-20T07:58:30;5.50;;;2.10;;
49221;SDS011;35047;37.588;-122.048;2022-11-20T08:01:06;3.58;;;1.67;;
49221;SDS011;35047;37.588;-122.048;2022-11-20T08:03:33;3.45;;;2.13;;
49221;SDS011;35047;37.588;-122.048;2022-11-20T08:06:02;3.78;;;1.92;;
49221;SDS011;35047;37.588;-122.048;2022-11-20T08:08:30;9.70;;;2.00;;
49221;SDS011;35047;37.588;-122.048;2022-11-20T08:13:42;4.32;;;1.73;;
49221;SDS011;35047;37.588;-122.048;2022-11-20T08:16:28;4.88;;;2.25;;
49221;SDS011;35047;37.588;-122.048;2022-11-20T08:18:56;5.03;;;2.05;;
49221;SDS011;35047;37.588;-122.048;2022-11-20T08:21:23;3.38;;;1.40;;
49221;SDS011;35047;37.588;-122.048;2022-11-20T08:23:50;3.65;;;1.80;;
49221;SDS011;35047;37.588;-122.048;2022-11-20T08:26:16;4.35;;;1.85;;
49221;SDS011;35047;37.588;-122.048;2022-11-20T08:28:43;2.63;;;1.63;;
49221;SDS011;35047;37.588;-122.048;2022-11-20T08:31:10;3.03;;;2.20;;
49221;SDS011;35047;37.588;-122.048;2022-11-20T08:33:37;2.63;;;1.83;;
49221;SDS011;35047;37.588;-122.048;2022-11-20T08:38:31;7.50;;;2.55;;
49221;SDS011;35047;37.588;-122.048;2022-11-20T08:43:44;3.53;;;1.92;;
49221;SDS011;35047;37.588;-122.048;2022-11-20T08:46:10;5.68;;;2.20;;
49221;SDS011;35047;37.588;-122.048;2022-11-20T08:48:37;4.38;;;2.03;;
49221;SDS011;35047;37.588;-122.048;2022-11-20T08:51:05;3.88;;;1.52;;
49221;SDS011;35047;37.588;-122.048;2022-11-20T08:53:32;6.65;;;2.28;;
49221;SDS011;35047;37.588;-122.048;2022-11-20T08:55:58;7.70;;;2.10;;
49221;SDS011;35047;37.588;-122.048;2022-11-20T08:58:25;2.70;;;1.58;;
49221;SDS011;35047;37.588;-122.048;2022-11-20T09:00:53;7.75;;;2.13;;
49221;SDS011;35047;37.588;-122.048;2022-11-20T09:03:19;6.67;;;2.10;;
49221;SDS011;35047;37.588;-122.048;2022-11-20T09:08:13;3.20;;;1.92;;
49221;SDS011;35047;37.588;-122.048;2022-11-20T09:10:40;4.70;;;2.28;;
49221;SDS011;35047;37.588;-122.048;2022-11-20T09:13:07;3.97;;;2.13;;
49221;SDS011;35047;37.588;-122.048;2022-11-20T09:15:34;3.83;;;1.70;;
49221;SDS011;35047;37.588;-122.048;2022-11-20T09:18:01;5.07;;;1.95;;
49221;SDS011;35047;37.588;-122.048;2022-11-20T09:20:30;4.40;;;1.80;;
49221;SDS011;35047;37.588;-122.048;2022-11-20T09:22:57;3.97;;;1.98;;
49221;SDS011;35047;37.588;-122.048;2022-11-20T09:25:23;2.13;;;1.33;;
49221;SDS011;35047;37.588;-122.048;2022-11-20T09:27:55;4.38;;;1.55;;
49221;SDS011;35047;37.588;-122.048;2022-11-20T09:30:23;1.90;;;1.63;;
49221;SDS011;35047;37.588;-122.048;2022-11-20T09:32:50;5.82;;;2.40;;
49221;SDS011;35047;37.588;-122.048;2022-11-20T09:37:44;4.25;;;2.33;;
49221;SDS011;35047;37.588;-122.048;2022-11-20T09:40:21;4.10;;;1.45;;
49221;SDS011;35047;37.588;-122.048;2022-11-20T09:46:05;9.70;;;2.47;;
49221;SDS011;35047;37.588;-122.048;2022-11-20T09:54:33;3.28;;;1.70;;
49221;SDS011;35047;37.588;-122.048;2022-11-20T09:57:05;2.42;;;1.67;;
49221;SDS011;35047;37.588;-122.048;2022-11-20T09:59:40;2.90;;;1.58;;
49221;SDS011;35047;37.588;-122.048;2022-11-20T10:05:15;2.95;;;1.38;;
49221;SDS011;35047;37.588;-122.048;2022-11-20T10:07:58;4.25;;;2.45;;
49221;SDS011;35047;37.588;-122.048;2022-11-20T10:10:40;3.58;;;1.88;;
49221;SDS011;35047;37.588;-122.048;2022-11-20T10:15:45;4.45;;;1.50;;
49221;SDS011;35047;37.588;-122.048;2022-11-20T10:19:11;4.78;;;2.72;;
49221;SDS011;35047;37.588;-122.048;2022-11-20T10:25:13;4.07;;;2.00;;
49221;SDS011;35047;37.588;-122.048;2022-11-20T10:30:22;3.85;;;2.03;;
49221;SDS011;35047;37.588;-122.048;2022-11-20T10:38:43;3.97;;;1.98;;
49221;SDS011;35047;37.588;-122.048;2022-11-20T10:41:15;6.75;;;2.70;;
49221;SDS011;35047;37.588;-122.048;2022-11-20T10:44:02;3.50;;;1.92;;
49221;SDS011;35047;37.588;-122.048;2022-11-20T10:46:49;2.40;;;2.03;;
49221;SDS011;35047;37.588;-122.048;2022-11-20T10:49:18;5.82;;;1.98;;
49221;SDS011;35047;37.588;-122.048;2022-11-20T10:51:52;4.03;;;2.05;;
49221;SDS011;35047;37.588;-122.048;2022-11-20T10:57:10;2.55;;;1.65;;
49221;SDS011;35047;37.588;-122.048;2022-11-20T11:02:50;2.17;;;1.60;;
49221;SDS011;35047;37.588;-122.048;2022-11-20T11:05:36;5.03;;;2.65;;
49221;SDS011;35047;37.588;-122.048;2022-11-20T11:08:04;2.88;;;1.23;;
49221;SDS011;35047;37.588;-122.048;2022-11-20T11:13:28;7.40;;;1.60;;
49221;SDS011;35047;37.588;-122.048;2022-11-20T11:15:56;2.15;;;1.55;;
49221;SDS011;35047;37.588;-122.048;2022-11-20T11:18:28;5.00;;;1.40;;
49221;SDS011;35047;37.588;-122.048;2022-11-20T11:21:00;6.10;;;1.35;;
49221;SDS011;35047;37.588;-122.048;2022-11-20T11:23:32;2.35;;;1.30;;
49221;SDS011;35047;37.588;-122.048;2022-11-20T11:26:00;4.70;;;1.27;;
49221;SDS011;35047;37.588;-122.048;2022-11-20T11:28:29;1.10;;;1.00;;
49221;SDS011;35047;37.588;-122.048;2022-11-20T11:30:56;2.27;;;1.13;;
49221;SDS011;35047;37.588;-122.048;2022-11-20T11:33:26;2.58;;;1.42;;
49221;SDS011;35047;37.588;-122.048;2022-11-20T11:35:55;2.88;;;1.13;;
49221;SDS011;35047;37.588;-122.048;2022-11-20T11:40:55;1.48;;;1.10;;
49221;SDS011;35047;37.588;-122.048;2022-11-20T11:43:24;1.65;;;1.15;;
49221;SDS011;35047;37.588;-122.048;2022-11-20T11:48:57;3.90;;;1.15;;
49221;SDS011;35047;37.588;-122.048;2022-11-20T11:51:41;1.10;;;0.93;;
49221;SDS011;35047;37.588;-122.048;2022-11-20T11:54:37;2.53;;;1.17;;
49221;SDS011;35047;37.588;-122.048;2022-11-20T11:57:16;3.00;;;1.30;;
49221;SDS011;35047;37.588;-122.048;2022-11-20T12:02:35;3.15;;;1.40;;
49221;SDS011;35047;37.588;-122.048;2022-11-20T12:05:24;3.13;;;1.48;;
49221;SDS011;35047;37.588;-122.048;2022-11-20T12:07:53;1.33;;;0.85;;
49221;SDS011;35047;37.588;-122.048;2022-11-20T12:10:51;4.38;;;1.60;;
49221;SDS011;35047;37.588;-122.048;2022-11-20T12:16:10;3.40;;;1.63;;
49221;SDS011;35047;37.588;-122.048;2022-11-20T12:18:39;2.83;;;1.00;;
49221;SDS011;35047;37.588;-122.048;2022-11-20T12:21:28;3.38;;;1.70;;
49221;SDS011;35047;37.588;-122.048;2022-11-20T12:27:02;2.38;;;1.23;;
49221;SDS011;35047;37.588;-122.048;2022-11-20T12:47:13;1.65;;;1.20;;
49221;SDS011;35047;37.588;-122.048;2022-11-20T12:55:11;7.35;;;1.30;;
49221;SDS011;35047;37.588;-122.048;2022-11-20T12:57:49;1.60;;;1.03;;
49221;SDS011;35047;37.588;-122.048;2022-11-20T13:00:21;3.47;;;0.88;;
49221;SDS011;35047;37.588;-122.048;2022-11-20T13:08:36;1.98;;;1.08;;
49221;SDS011;35047;37.588;-122.048;2022-11-20T13:16:54;8.93;;;1.58;;
49221;SDS011;35047;37.588;-122.048;2022-11-20T13:19:41;2.53;;;1.35;;
49221;SDS011;35047;37.588;-122.048;2022-11-20T13:22:12;4.72;;;1.10;;
49221;SDS011;35047;37.588;-122.048;2022-11-20T13:24:52;2.83;;;1.15;;
49221;SDS011;35047;37.588;-122.048;2022-11-20T13:27:20;1.90;;;1.17;;
49221;SDS011;35047;37.588;-122.048;2022-11-20T13:30:02;3.33;;;1.17;;
49221;SDS011;35047;37.588;-122.048;2022-11-20T13:32:51;5.85;;;1.05;;
49221;SDS011;35047;37.588;-122.048;2022-11-20T13:40:36;1.58;;;1.15;;
49221;SDS011;35047;37.588;-122.048;2022-11-20T13:43:28;2.17;;;1.60;;
49221;SDS011;35047;37.588;-122.048;2022-11-20T13:46:00;2.20;;;1.20;;
49221;SDS011;35047;37.588;-122.048;2022-11-20T13:48:32;2.45;;;1.20;;
49221;SDS011;35047;37.588;-122.048;2022-11-20T13:51:23;3.95;;;1.17;;
49221;SDS011;35047;37.588;-122.048;2022-11-20T13:54:23;4.55;;;1.60;;
49221;SDS011;35047;37.588;-122.048;2022-11-20T14:02:57;2.53;;;1.35;;
49221;SDS011;35047;37.588;-122.048;2022-11-20T14:05:34;3.33;;;1.20;;
49221;SDS011;35047;37.588;-122.048;2022-11-20T14:08:04;1.98;;;0.95;;
49221;SDS011;35047;37.588;-122.048;2022-11-20T14:10:38;2.28;;;1.35;;
49221;SDS011;35047;37.588;-122.048;2022-11-20T14:13:10;2.70;;;1.58;;
49221;SDS011;35047;37.588;-122.048;2022-11-20T14:15:46;6.55;;;1.55;;
49221;SDS011;35047;37.588;-122.048;2022-11-20T14:18:21;2.33;;;1.20;;
49221;SDS011;35047;37.588;-122.048;2022-11-20T14:20:49;2.60;;;1.45;;
49221;SDS011;35047;37.588;-122.048;2022-11-20T14:23:26;3.10;;;1.30;;
49221;SDS011;35047;37.588;-122.048;2022-11-20T14:25:54;2.38;;;1.55;;
49221;SDS011;35047;37.588;-122.048;2022-11-20T14:28:25;1.95;;;1.27;;
49221;SDS011;35047;37.588;-122.048;2022-11-20T14:30:53;4.32;;;1.90;;
49221;SDS011;35047;37.588;-122.048;2022-11-20T14:33:21;2.85;;;1.52;;
49221;SDS011;35047;37.588;-122.048;2022-11-20T14:35:54;1.52;;;1.30;;
49221;SDS011;35047;37.588;-122.048;2022-11-20T14:38:25;1.52;;;1.08;;
49221;SDS011;35047;37.588;-122.048;2022-11-20T14:41:08;2.97;;;1.75;;
49221;SDS011;35047;37.588;-122.048;2022-11-20T14:43:44;2.17;;;1.35;;
49221;SDS011;35047;37.588;-122.048;2022-11-20T14:46:12;2.50;;;1.55;;
49221;SDS011;35047;37.588;-122.048;2022-11-20T14:48:41;1.85;;;1.20;;
49221;SDS011;35047;37.588;-122.048;2022-11-20T14:51:10;3.53;;;1.27;;
49221;SDS011;35047;37.588;-122.048;2022-11-20T14:53:37;1.92;;;1.30;;
49221;SDS011;35047;37.588;-122.048;2022-11-20T14:56:04;3.15;;;1.50;;
49221;SDS011;35047;37.588;-122.048;2022-11-20T14:58:32;1.75;;;1.23;;
49221;SDS011;35047;37.588;-122.048;2022-11-20T15:01:03;2.28;;;1.52;;
49221;SDS011;35047;37.588;-122.048;2022-11-20T15:03:35;2.40;;;1.73;;
49221;SDS011;35047;37.588;-122.048;2022-11-20T15:06:04;2.70;;;1.45;;
49221;SDS011;35047;37.588;-122.048;2022-11-20T15:08:33;5.55;;;1.95;;
49221;SDS011;35047;37.588;-122.048;2022-11-20T15:11:00;3.40;;;1.48;;
49221;SDS011;35047;37.588;-122.048;2022-11-20T15:13:37;1.77;;;1.15;;
49221;SDS011;35047;37.588;-122.048;2022-11-20T15:16:13;2.35;;;1.45;;
49221;SDS011;35047;37.588;-122.048;2022-11-20T15:18:45;4.97;;;1.50;;
49221;SDS011;35047;37.588;-122.048;2022-11-20T15:21:17;3.83;;;1.98;;
49221;SDS011;35047;37.588;-122.048;2022-11-20T15:23:46;1.85;;;1.45;;
49221;SDS011;35047;37.588;-122.048;2022-11-20T15:26:14;2.35;;;1.48;;
49221;SDS011;35047;37.588;-122.048;2022-11-20T15:28:50;2.60;;;1.80;;
49221;SDS011;35047;37.588;-122.048;2022-11-20T15:31:19;3.75;;;1.65;;
49221;SDS011;35047;37.588;-122.048;2022-11-20T15:33:48;2.58;;;1.77;;
49221;SDS011;35047;37.588;-122.048;2022-11-20T15:36:15;1.77;;;1.35;;
49221;SDS011;35047;37.588;-122.048;2022-11-20T15:38:42;4.20;;;2.15;;
49221;SDS011;35047;37.588;-122.048;2022-11-20T15:41:09;4.40;;;1.48;;
49221;SDS011;35047;37.588;-122.048;2022-11-20T15:43:36;4.18;;;1.75;;
49221;SDS011;35047;37.588;-122.048;2022-11-20T15:46:06;1.63;;;1.42;;
49221;SDS011;35047;37.588;-122.048;2022-11-20T15:48:41;3.45;;;1.77;;
49221;SDS011;35047;37.588;-122.048;2022-11-20T15:53:37;2.63;;;2.05;;
49221;SDS011;35047;37.588;-122.048;2022-11-20T15:56:05;3.30;;;1.58;;
49221;SDS011;35047;37.588;-122.048;2022-11-20T15:58:42;2.80;;;2.28;;
49221;SDS011;35047;37.588;-122.048;2022-11-20T16:01:12;1.65;;;1.40;;
49221;SDS011;35047;37.588;-122.048;2022-11-20T16:03:42;2.58;;;1.42;;
49221;SDS011;35047;37.588;-122.048;2022-11-20T16:08:36;2.72;;;2.03;;
49221;SDS011;35047;37.588;-122.048;2022-11-20T16:11:03;4.38;;;2.75;;
49221;SDS011;35047;37.588;-122.048;2022-11-20T16:13:30;4.30;;;2.65;;
49221;SDS011;35047;37.588;-122.048;2022-11-20T16:16:22;5.63;;;2.55;;
49221;SDS011;35047;37.588;-122.048;2022-11-20T16:18:56;5.10;;;2.60;;
49221;SDS011;35047;37.588;-122.048;2022-11-20T16:23:59;14.85;;;1.38;;
49221;SDS011;35047;37.588;-122.048;2022-11-20T16:26:27;2.28;;;1.58;;
49221;SDS011;35047;37.588;-122.048;2022-11-20T16:28:54;2.60;;;1.60;;
49221;SDS011;35047;37.588;-122.048;2022-11-20T16:31:21;3.07;;;2.00;;
49221;SDS011;35047;37.588;-122.048;2022-11-20T16:33:51;4.82;;;2.72;;
49221;SDS011;35047;37.588;-122.048;2022-11-20T16:36:20;4.68;;;2.67;;
49221;SDS011;35047;37.588;-122.048;2022-11-20T16:38:55;2.92;;;2.35;;
49221;SDS011;35047;37.588;-122.048;2022-11-20T16:41:28;2.70;;;2.13;;
49221;SDS011;35047;37.588;-122.048;2022-11-20T16:43:58;3.78;;;1.98;;
49221;SDS011;35047;37.588;-122.048;2022-11-20T16:46:27;6.93;;;2.38;;
49221;SDS011;35047;37.588;-122.048;2022-11-20T16:48:55;2.90;;;2.25;;